Home PIREPS Pireps

Flight SAB2812

  • Submitted By: Vincent Fourni
  • Departure Airport: Praha - Ruzyne (LKPR)
  • Arrival Airport: Bruxelles National (EBBR)
  • Aircraft: B737-500 (OO-SAB)
  • Flight Time: 01.30
  • Date Submitted: 20/06/2016
  • Status: Accepted
Flight Details
Gross Revenue:
(125 load / € 0.00 per unit
€ 0.00
Fuel Cost:
(3679 fuel used @ 5.1 / unit)
€ 18,762.90

Additional Log Information:

View Log

Aircraft Used in flight is PMDG 737-800NGX Brussels Airlines Winglets
20:48 Brakes are On
20:49 Brakes are Released
20:51 Brakes are On
20:51 Brakes are Released
21:00 You Took off @ 164 Knots and Flaps at Position 3
Departure Weather
LKPR 201830Z 18005KT CAVOK 16/13 Q1019 NOSIGrn
21:00 Landing Gear Up @ 161 Knots and 1650 Feet
21:01 Below FL100 you need to turn on the landing lights
21:02 Below 10000 feet you are not allowed to go over 250 knots
21:49 Above FL100 you need to switch of the landing lights
21:49 Above FL100 you need to switch of the landing lights
22:03 Landing Gear Down @ 183 Knots and 3340 Feet
22:07 You Landed @ 123 Knots and with -600 Vertical Speed
Arrival Weather
EBBR 201950Z 25009KT 9999 FEW012 SCT024 16/14 Q1015 NOSIGrn
22:07 Your Landing was very hard
22:14 Brakes are On
22:18 Brussels Bel-Track1.0.1.2

Route Map

Corporate About Us Our Team Vacancies Information Fleet Route Network Rules and Regulations Operations Flight Schedules Event Center Tours Partners IVAO Vatsim Acars dev FSCB

fb Users Online No pilots online!
0 Pilot(s) and 138 Guest(s) Online
CMS by phpVMS - Design by Crazycreatives.com - Copyright © 2020 - Brussels Airlines Virtual